Time;durP1;ratioP1;P1;durP2;ratioP2;P2;SDS_P1;SDS_P2;PMS_P1;PMS_P2;Temp;Humidity;BMP_temperature;BMP_pressure;BME280_temperature;BME280_humidity;BME280_pressure;Samples;Min_cycle;Max_cycle;Signal;HPM_P1;HPM_P2
2023/07/28 00:01:13;;;;;;;;;;;;;;;17.06;100.00;100445.19;4937570;29;20268;-82
2023/07/28 00:03:38;;;;;;;;;;;;;;;17.06;100.00;100446.09;4907939;29;19929;-82
2023/07/28 00:06:03;;;;;;;;;;;;;;;17.05;100.00;100451.50;4939459;29;19990;-81
2023/07/28 00:08:29;;;;;;;;;;;;;;;17.04;100.00;100452.47;4952381;29;19946;-82
2023/07/28 00:10:54;;;;;;;;;;;;;;;17.05;100.00;100452.34;4939083;29;19930;-81
2023/07/28 00:13:19;;;;;;;;;;;;;;;17.05;100.00;100444.34;4922349;29;19927;-82
2023/07/28 00:15:45;;;;;;;;;;;;;;;17.05;100.00;100443.47;4909595;29;20018;-82
2023/07/28 00:18:10;;;;;;;;;;;;;;;17.05;100.00;100440.81;4959638;29;20378;-82
2023/07/28 00:20:35;;;;;;;;;;;;;;;17.07;100.00;100438.91;4932433;29;20058;-82
2023/07/28 00:23:01;;;;;;;;;;;;;;;17.08;100.00;100435.28;4942432;29;19930;-82
2023/07/28 00:25:26;;;;;;;;;;;;;;;17.08;100.00;100441.47;4938715;29;19923;-82
2023/07/28 00:27:51;;;;;;;;;;;;;;;17.06;100.00;100437.16;4959169;29;19922;-82
2023/07/28 00:30:17;;;;;;;;;;;;;;;17.06;100.00;100443.41;4930126;29;20386;-82
2023/07/28 00:32:42;;;;;;;;;;;;;;;17.06;100.00;100435.38;4930310;29;19954;-82
2023/07/28 00:35:08;;;;;;;;;;;;;;;17.05;100.00;100432.78;4946007;29;19922;-82
2023/07/28 00:37:34;;;;;;;;;;;;;;;17.02;100.00;100423.09;4924734;29;19925;-82
2023/07/28 00:39:59;;;;;;;;;;;;;;;17.04;100.00;100431.91;4925480;29;19965;-82
2023/07/28 00:42:27;;;;;;;;;;;;;;;17.02;100.00;100431.13;4950873;29;19923;-82
2023/07/28 00:44:52;;;;;;;;;;;;;;;17.01;100.00;100436.56;4910550;29;19923;-82
2023/07/28 00:47:18;;;;;;;;;;;;;;;17.00;100.00;100438.38;4926864;29;20282;-82
2023/07/28 00:49:43;;;;;;;;;;;;;;;17.03;100.00;100437.34;4944771;29;19923;-82
2023/07/28 00:52:08;;;;;;;;;;;;;;;17.05;100.00;100435.44;4945544;29;19982;-82
2023/07/28 00:54:34;;;;;;;;;;;;;;;17.04;100.00;100434.59;4925495;29;19970;-82
2023/07/28 00:57:00;;;;;;;;;;;;;;;17.06;100.00;100437.16;4941282;29;19984;-82
2023/07/28 00:59:25;;;;;;;;;;;;;;;17.05;100.00;100430.97;4941486;29;19986;-82
2023/07/28 01:01:51;;;;;;;;;;;;;;;17.06;100.00;100435.38;4943514;29;20378;-82
2023/07/28 01:04:17;;;;;;;;;;;;;;;17.06;100.00;100438.06;4925153;29;19925;-82
2023/07/28 01:07:12;;;;;;;;;;;;;;;17.07;100.00;100442.44;4942675;29;19996;-82
2023/07/28 01:09:50;;;;;;;;;;;;;;;17.06;100.00;100442.50;4920007;29;19983;-82
2023/07/28 01:12:15;;;;;;;;;;;;;;;17.07;100.00;100447.78;4939532;29;20263;-81
2023/07/28 01:14:43;;;;;;;;;;;;;;;17.07;100.00;100453.16;4940416;29;19960;-82
2023/07/28 01:17:12;;;;;;;;;;;;;;;17.07;100.00;100455.81;4940477;29;19925;-82
2023/07/28 01:19:41;;;;;;;;;;;;;;;17.08;100.00;100456.69;4908597;29;19919;-82
2023/07/28 01:22:25;;;;;;;;;;;;;;;17.07;100.00;100453.16;4908030;29;19930;-82
2023/07/28 01:25:03;;;;;;;;;;;;;;;17.05;100.00;100455.03;4922998;29;20305;-82
2023/07/28 01:27:29;;;;;;;;;;;;;;;17.04;100.00;100445.28;4941588;29;19946;-82
2023/07/28 01:29:54;;;;;;;;;;;;;;;17.06;100.00;100450.53;4906197;29;19965;-82
2023/07/28 01:32:20;;;;;;;;;;;;;;;17.08;100.00;100454.00;4954758;29;19933;-82
2023/07/28 01:34:45;;;;;;;;;;;;;;;17.08;100.00;100444.16;4941740;29;20430;-82
2023/07/28 01:37:10;;;;;;;;;;;;;;;17.08;100.00;100457.53;4942008;29;20297;-82
2023/07/28 01:39:36;;;;;;;;;;;;;;;17.10;100.00;100452.09;4957596;29;19941;-82
2023/07/28 01:42:01;;;;;;;;;;;;;;;17.09;100.00;100453.06;4973637;28;19922;-82
2023/07/28 01:44:27;;;;;;;;;;;;;;;17.09;100.00;100459.28;4956340;28;20013;-82
2023/07/28 01:46:52;;;;;;;;;;;;;;;17.09;100.00;100461.94;4925073;29;20436;-82
2023/07/28 01:49:17;;;;;;;;;;;;;;;17.09;100.00;100458.41;4957993;29;19937;-82
2023/07/28 01:51:43;;;;;;;;;;;;;;;17.10;100.00;100455.63;4929798;29;19922;-82
2023/07/28 01:54:08;;;;;;;;;;;;;;;17.10;100.00;100462.81;4956277;29;20250;-82
2023/07/28 01:56:33;;;;;;;;;;;;;;;17.10;100.00;100463.66;4956144;29;20004;-82
2023/07/28 01:58:59;;;;;;;;;;;;;;;17.11;100.00;100460.06;4941297;29;19919;-82
2023/07/28 02:01:24;;;;;;;;;;;;;;;17.11;100.00;100454.72;4941136;29;19929;-82
2023/07/28 02:03:50;;;;;;;;;;;;;;;17.13;100.00;100460.81;4956037;29;20234;-82
2023/07/28 02:06:15;;;;;;;;;;;;;;;17.12;100.00;100452.91;4955241;28;19980;-82
2023/07/28 02:08:40;;;;;;;;;;;;;;;17.13;100.00;100454.59;4975588;28;19919;-83
2023/07/28 02:11:06;;;;;;;;;;;;;;;17.14;100.00;100462.56;4977509;28;19949;-82
2023/07/28 02:13:32;;;;;;;;;;;;;;;17.13;100.00;100455.47;4943271;28;20056;-82
2023/07/28 02:15:58;;;;;;;;;;;;;;;17.14;100.00;100451.84;4960279;28;19966;-82
2023/07/28 02:18:23;;;;;;;;;;;;;;;17.13;100.00;100451.94;4960005;28;19969;-82
2023/07/28 02:20:49;;;;;;;;;;;;;;;17.15;100.00;100458.06;4974829;28;19973;-82
2023/07/28 02:23:14;;;;;;;;;;;;;;;17.12;100.00;100453.75;4958633;28;19922;-82
2023/07/28 02:25:40;;;;;;;;;;;;;;;17.13;100.00;100452.78;4959147;28;20345;-82
2023/07/28 02:28:08;;;;;;;;;;;;;;;17.15;100.00;100448.22;4958228;28;19922;-82
2023/07/28 02:30:33;;;;;;;;;;;;;;;17.15;100.00;100458.06;4958468;28;19922;-82
2023/07/28 02:32:59;;;;;;;;;;;;;;;17.15;100.00;100456.25;4975008;28;19941;-82
2023/07/28 02:35:24;;;;;;;;;;;;;;;17.14;100.00;100451.00;4952085;29;20426;-82
2023/07/28 02:37:49;;;;;;;;;;;;;;;17.13;100.00;100455.47;4936692;29;19922;-82
2023/07/28 02:40:15;;;;;;;;;;;;;;;17.11;100.00;100452.03;4939026;29;20009;-82
2023/07/28 02:42:40;;;;;;;;;;;;;;;17.12;100.00;100455.56;4958129;28;19985;-83
2023/07/28 02:45:09;;;;;;;;;;;;;;;17.13;100.00;100450.13;4958627;28;19925;-82
2023/07/28 02:47:35;;;;;;;;;;;;;;;17.15;100.00;100458.94;4957290;29;19925;-82
2023/07/28 02:50:00;;;;;;;;;;;;;;;17.15;100.00;100455.41;4954228;28;19923;-82
2023/07/28 02:52:26;;;;;;;;;;;;;;;17.13;100.00;100460.81;4922714;29;19961;-82
2023/07/28 02:54:51;;;;;;;;;;;;;;;17.15;100.00;100466.09;4954464;28;19925;-82
2023/07/28 02:57:17;;;;;;;;;;;;;;;17.15;100.00;100472.31;4938606;29;19918;-82
2023/07/28 02:59:44;;;;;;;;;;;;;;;17.17;100.00;100472.22;4966103;28;20021;-82
2023/07/28 03:02:10;;;;;;;;;;;;;;;17.17;100.00;100474.91;4923320;29;20354;-82
2023/07/28 03:04:35;;;;;;;;;;;;;;;17.17;100.00;100481.13;4939510;29;19930;-82
2023/07/28 03:07:16;;;;;;;;;;;;;;;17.16;100.00;100482.06;4941542;29;20409;-82
2023/07/28 03:09:43;;;;;;;;;;;;;;;17.15;100.00;100474.97;4938745;29;20341;-82
2023/07/28 03:12:10;;;;;;;;;;;;;;;17.16;100.00;100481.19;4922959;29;19931;-83
2023/07/28 03:14:36;;;;;;;;;;;;;;;17.17;100.00;100480.25;4927135;28;19922;-82
2023/07/28 03:17:02;;;;;;;;;;;;;;;17.14;100.00;100478.63;4974220;28;19929;-82
2023/07/28 03:19:27;;;;;;;;;;;;;;;17.13;100.00;100478.69;4940235;28;19928;-82
2023/07/28 03:21:52;;;;;;;;;;;;;;;17.14;100.00;100485.78;4938558;29;19923;-82
2023/07/28 03:24:18;;;;;;;;;;;;;;;17.14;100.00;100478.63;4938074;29;19922;-82
2023/07/28 03:26:43;;;;;;;;;;;;;;;17.15;100.00;100490.19;4939903;29;19922;-82
2023/07/28 03:29:10;;;;;;;;;;;;;;;17.13;100.00;100481.38;4923081;29;20357;-82
2023/07/28 03:31:36;;;;;;;;;;;;;;;17.13;100.00;100479.53;4955451;29;19977;-82
2023/07/28 03:34:04;;;;;;;;;;;;;;;17.13;100.00;100482.22;4955600;29;20014;-82
2023/07/28 03:36:30;;;;;;;;;;;;;;;17.13;100.00;100490.25;4957705;28;19919;-82
2023/07/28 03:38:56;;;;;;;;;;;;;;;17.15;100.00;100482.16;4941865;29;19965;-82
2023/07/28 03:41:22;;;;;;;;;;;;;;;17.14;100.00;100480.44;4973353;28;19926;-82
2023/07/28 03:43:48;;;;;;;;;;;;;;;17.14;100.00;100485.78;4942146;29;20281;-82
2023/07/28 03:46:13;;;;;;;;;;;;;;;17.15;100.00;100483.00;4946370;29;19938;-83
2023/07/28 03:48:38;;;;;;;;;;;;;;;17.17;100.00;100490.97;4963013;29;20009;-81
2023/07/28 03:51:04;;;;;;;;;;;;;;;17.18;100.00;100495.34;4943418;29;19926;-81
2023/07/28 03:53:30;;;;;;;;;;;;;;;17.17;100.00;100493.63;4942503;29;19918;-81
2023/07/28 03:55:57;;;;;;;;;;;;;;;17.18;100.00;100495.34;4942925;29;19965;-81
2023/07/28 03:58:24;;;;;;;;;;;;;;;17.16;100.00;100502.59;4961507;28;19928;-81
2023/07/28 04:00:49;;;;;;;;;;;;;;;17.15;100.00;100503.56;4958520;28;20384;-81
2023/07/28 04:03:15;;;;;;;;;;;;;;;17.14;100.00;100501.84;4965105;28;19982;-81
2023/07/28 04:05:40;;;;;;;;;;;;;;;17.13;100.00;100503.63;4979540;28;20262;-81
2023/07/28 04:08:05;;;;;;;;;;;;;;;17.14;100.00;100501.84;4928902;29;19926;-81
2023/07/28 04:10:31;;;;;;;;;;;;;;;17.14;100.00;100504.50;4952629;29;19927;-81
2023/07/28 04:12:56;;;;;;;;;;;;;;;17.16;100.00;100507.94;4940325;29;20348;-82
2023/07/28 04:15:21;;;;;;;;;;;;;;;17.16;100.00;100499.91;4940858;29;20442;-81
2023/07/28 04:17:47;;;;;;;;;;;;;;;17.15;100.00;100506.22;4954826;29;19925;-81
2023/07/28 04:20:12;;;;;;;;;;;;;;;17.14;100.00;100502.69;4926491;29;19923;-81
2023/07/28 04:22:38;;;;;;;;;;;;;;;17.14;100.00;100500.03;4959158;29;19965;-81
2023/07/28 04:25:03;;;;;;;;;;;;;;;17.15;100.00;100506.22;4925619;29;19933;-81
2023/07/28 04:27:29;;;;;;;;;;;;;;;17.15;100.00;100495.53;4957206;28;19925;-81
2023/07/28 04:29:58;;;;;;;;;;;;;;;17.14;100.00;100493.81;4957352;29;19927;-81
2023/07/28 04:32:25;;;;;;;;;;;;;;;17.12;100.00;100493.88;4961333;28;20390;-81
2023/07/28 04:34:53;;;;;;;;;;;;;;;17.13;100.00;100498.28;4973591;28;19960;-81
2023/07/28 04:37:37;;;;;;;;;;;;;;;17.16;100.00;100505.28;4958716;29;19926;-81
2023/07/28 04:40:03;;;;;;;;;;;;;;;17.16;100.00;100506.16;4972737;28;19926;-81
2023/07/28 04:42:33;;;;;;;;;;;;;;;17.14;100.00;100502.69;4956569;28;20013;-81
2023/07/28 04:44:59;;;;;;;;;;;;;;;17.16;100.00;100500.81;4948236;29;19958;-81
2023/07/28 04:47:25;;;;;;;;;;;;;;;17.17;100.00;100502.53;4940255;29;19922;-81
2023/07/28 04:49:50;;;;;;;;;;;;;;;17.18;100.00;100506.94;4941729;29;19922;-81
2023/07/28 04:52:34;;;;;;;;;;;;;;;17.19;100.00;100505.97;4959319;29;19968;-81
2023/07/28 04:55:18;;;;;;;;;;;;;;;17.18;100.00;100512.28;4945197;29;19933;-81
2023/07/28 04:57:43;;;;;;;;;;;;;;;17.20;100.00;100520.22;4942864;29;19923;-81
2023/07/28 05:00:10;;;;;;;;;;;;;;;17.19;100.00;100510.47;4924608;29;19922;-81
2023/07/28 05:02:36;;;;;;;;;;;;;;;17.19;100.00;100510.47;4940578;29;19941;-81
2023/07/28 05:05:01;;;;;;;;;;;;;;;17.22;100.00;100512.97;4940574;29;19923;-81
2023/07/28 05:07:28;;;;;;;;;;;;;;;17.20;100.00;100515.72;4924621;29;19953;-81
2023/07/28 05:09:54;;;;;;;;;;;;;;;17.20;100.00;100518.41;4939518;29;19922;-81
2023/07/28 05:12:23;;;;;;;;;;;;;;;17.22;100.00;100512.13;4940395;28;19922;-81
2023/07/28 05:14:49;;;;;;;;;;;;;;;17.23;100.00;100516.50;4920673;29;19923;-81
2023/07/28 05:17:18;;;;;;;;;;;;;;;17.24;100.00;100518.25;4948657;29;20025;-81
2023/07/28 05:19:54;;;;;;;;;;;;;;;17.26;100.00;100524.38;4939612;29;20317;-81
2023/07/28 05:22:38;;;;;;;;;;;;;;;17.28;100.00;100534.03;4956703;29;19925;-81
2023/07/28 05:25:03;;;;;;;;;;;;;;;17.28;100.00;100538.53;4938590;28;19923;-80
2023/07/28 05:27:31;;;;;;;;;;;;;;;17.28;100.00;100536.72;4904064;29;19923;-80
2023/07/28 05:29:57;;;;;;;;;;;;;;;17.31;100.00;100539.25;4933493;29;19945;-80
2023/07/28 05:32:22;;;;;;;;;;;;;;;17.32;100.00;100543.63;4921698;29;19962;-80
2023/07/28 05:35:06;;;;;;;;;;;;;;;17.36;100.00;100544.34;4954961;29;19981;-80
2023/07/28 05:37:31;;;;;;;;;;;;;;;17.38;100.00;100551.34;4937899;29;19919;-80
2023/07/28 05:39:57;;;;;;;;;;;;;;;17.41;100.00;100553.00;4937996;29;19922;-80
2023/07/28 05:42:24;;;;;;;;;;;;;;;17.44;100.00;100554.63;4954547;29;19941;-80
2023/07/28 05:44:51;;;;;;;;;;;;;;;17.44;100.00;100557.31;4921590;29;20341;-80
2023/07/28 05:47:17;;;;;;;;;;;;;;;17.45;100.00;100553.66;4937750;29;20053;-81
2023/07/28 05:49:43;;;;;;;;;;;;;;;17.48;100.00;100554.38;4921948;29;20497;-80
2023/07/28 05:52:08;;;;;;;;;;;;;;;17.48;100.00;100554.38;4953725;28;20255;-80
2023/07/28 05:54:33;;;;;;;;;;;;;;;17.48;100.00;100562.41;4937619;29;19946;-81
2023/07/28 05:56:59;;;;;;;;;;;;;;;17.51;100.00;100564.91;4937623;29;20334;-81
2023/07/28 05:59:24;;;;;;;;;;;;;;;17.50;100.00;100557.81;4937037;29;19930;-81
2023/07/28 06:01:49;;;;;;;;;;;;;;;17.53;100.00;100554.09;4953921;29;19967;-81
2023/07/28 06:04:31;;;;;;;;;;;;;;;17.53;100.00;100559.47;4953283;29;19965;-81
2023/07/28 06:06:58;;;;;;;;;;;;;;;17.54;100.00;100563.88;4951781;29;19996;-81
2023/07/28 06:09:24;;;;;;;;;;;;;;;17.52;100.00;100563.09;4921583;29;20687;-81
2023/07/28 06:11:49;;;;;;;;;;;;;;;17.54;100.00;100559.38;4921634;29;20005;-80
2023/07/28 06:14:15;;;;;;;;;;;;;;;17.55;100.00;100563.78;4954090;29;19922;-80
2023/07/28 06:16:41;;;;;;;;;;;;;;;17.58;100.00;100560.06;4938046;29;19969;-81
2023/07/28 06:19:08;;;;;;;;;;;;;;;17.61;100.00;100570.63;4922520;29;19974;-81
2023/07/28 06:21:34;;;;;;;;;;;;;;;17.65;100.00;100576.66;4920083;29;19919;-80
2023/07/28 06:23:59;;;;;;;;;;;;;;;17.65;100.00;100574.84;4937990;29;19941;-80
2023/07/28 06:26:25;;;;;;;;;;;;;;;17.67;100.00;100578.31;4937040;29;19922;-80
2023/07/28 06:28:51;;;;;;;;;;;;;;;17.68;100.00;100568.44;4953287;29;19929;-80
2023/07/28 06:31:16;;;;;;;;;;;;;;;17.71;100.00;100576.34;4931797;29;20301;-80
2023/07/28 06:33:42;;;;;;;;;;;;;;;17.75;100.00;100578.72;4949109;29;20401;-80
2023/07/28 06:36:07;;;;;;;;;;;;;;;17.83;100.00;100575.69;4934201;29;19946;-82
2023/07/28 06:38:32;;;;;;;;;;;;;;;17.83;100.00;100583.72;4932529;29;19931;-80
2023/07/28 06:40:58;;;;;;;;;;;;;;;17.84;100.00;100588.97;4928084;29;19919;-80
2023/07/28 06:43:24;;;;;;;;;;;;;;;17.86;100.00;100593.41;4917308;29;19930;-80
2023/07/28 06:45:51;;;;;;;;;;;;;;;17.85;100.00;100595.19;4933600;29;19927;-80
2023/07/28 06:48:16;;;;;;;;;;;;;;;17.89;100.00;100599.44;4933776;29;20394;-80
2023/07/28 06:50:42;;;;;;;;;;;;;;;17.93;100.00;100597.47;4934832;29;20279;-79
2023/07/28 06:53:08;;;;;;;;;;;;;;;17.92;100.00;100596.56;4955156;28;19919;-80
2023/07/28 06:55:33;;;;;;;;;;;;;;;17.94;100.00;100602.72;4949801;29;20088;-80
2023/07/28 06:57:59;;;;;;;;;;;;;;;17.97;100.00;100599.00;4933846;29;19931;-80
2023/07/28 07:00:24;;;;;;;;;;;;;;;18.01;100.00;100595.19;4933544;29;19918;-80
2023/07/28 07:02:50;;;;;;;;;;;;;;;18.05;100.00;100599.41;4917113;29;20021;-80
2023/07/28 07:05:15;;;;;;;;;;;;;;;18.10;100.00;100607.19;4933512;29;19986;-80
2023/07/28 07:07:40;;;;;;;;;;;;;;;18.10;100.00;100607.19;4934146;29;19927;-80
2023/07/28 07:10:06;;;;;;;;;;;;;;;18.10;100.00;100613.44;4917914;29;19939;-81
2023/07/28 07:12:32;;;;;;;;;;;;;;;18.08;100.00;100620.69;4937321;29;19994;-82
2023/07/28 07:14:57;;;;;;;;;;;;;;;18.09;100.00;100610.84;4938444;29;19923;-80
2023/07/28 07:17:22;;;;;;;;;;;;;;;18.10;100.00;100626.84;4938921;29;19965;-82
2023/07/28 07:19:48;;;;;;;;;;;;;;;18.10;100.00;100625.97;4939099;29;19934;-81
2023/07/28 07:22:13;;;;;;;;;;;;;;;18.11;100.00;100625.88;4936930;29;19947;-81
2023/07/28 07:24:38;;;;;;;;;;;;;;;18.09;100.00;100630.47;4939551;29;19950;-82
2023/07/28 07:27:04;;;;;;;;;;;;;;;18.10;100.00;100629.53;4939898;29;20270;-81
2023/07/28 07:29:30;;;;;;;;;;;;;;;18.12;100.00;100634.78;4939699;29;20409;-81
2023/07/28 07:31:56;;;;;;;;;;;;;;;18.11;100.00;100627.69;4951021;29;20334;-81
2023/07/28 07:34:22;;;;;;;;;;;;;;;18.10;100.00;100629.53;4940984;29;19923;-81
2023/07/28 07:36:47;;;;;;;;;;;;;;;18.10;100.00;100636.66;4945376;29;19941;-81
2023/07/28 07:39:13;;;;;;;;;;;;;;;18.13;100.00;100637.38;4940894;29;20358;-81
2023/07/28 07:41:39;;;;;;;;;;;;;;;18.17;100.00;100643.41;4952052;29;19954;-81
2023/07/28 07:44:04;;;;;;;;;;;;;;;18.20;100.00;100641.44;4941368;29;19926;-82
2023/07/28 07:46:29;;;;;;;;;;;;;;;18.24;100.00;100642.13;4958144;29;20012;-81
2023/07/28 07:48:55;;;;;;;;;;;;;;;18.26;100.00;100650.94;4926979;29;20353;-82
2023/07/28 07:51:20;;;;;;;;;;;;;;;18.26;100.00;100643.75;4931067;29;19931;-81
2023/07/28 07:53:45;;;;;;;;;;;;;;;18.28;100.00;100651.72;4936224;29;19923;-81
2023/07/28 07:56:11;;;;;;;;;;;;;;;18.27;100.00;100653.56;4936554;29;19927;-81
2023/07/28 07:58:36;;;;;;;;;;;;;;;18.27;100.00;100649.97;4905878;29;20263;-82
2023/07/28 08:01:02;;;;;;;;;;;;;;;18.27;100.00;100653.56;4938108;29;19930;-82
2023/07/28 08:03:27;;;;;;;;;;;;;;;18.27;100.00;100648.19;4921073;29;19919;-82
2023/07/28 08:05:53;;;;;;;;;;;;;;;18.29;100.00;100645.41;4932342;29;19930;-82
2023/07/28 08:08:19;;;;;;;;;;;;;;;18.31;100.00;100651.53;4919449;29;20013;-82
2023/07/28 08:10:45;;;;;;;;;;;;;;;18.33;100.00;100652.31;4938001;29;20335;-82
2023/07/28 08:13:10;;;;;;;;;;;;;;;18.32;100.00;100652.41;4916560;29;19951;-82
2023/07/28 08:15:36;;;;;;;;;;;;;;;18.32;100.00;100655.94;4941007;29;20290;-82
2023/07/28 08:18:01;;;;;;;;;;;;;;;18.36;100.00;100660.19;4927930;29;19923;-82
2023/07/28 08:20:26;;;;;;;;;;;;;;;18.36;100.00;100664.69;4937376;29;20387;-83
2023/07/28 08:22:52;;;;;;;;;;;;;;;18.36;100.00;100660.19;4934880;29;20261;-82
2023/07/28 08:25:18;;;;;;;;;;;;;;;18.36;100.00;100662.88;4941993;29;19927;-82
2023/07/28 08:27:43;;;;;;;;;;;;;;;18.40;100.00;100667.13;4957238;29;20001;-82
2023/07/28 08:30:09;;;;;;;;;;;;;;;18.39;100.00;100672.56;4957481;29;19968;-82
2023/07/28 08:32:34;;;;;;;;;;;;;;;18.40;100.00;100667.13;4921557;29;19961;-82
2023/07/28 08:35:00;;;;;;;;;;;;;;;18.42;100.00;100672.38;4938701;29;19923;-83
2023/07/28 08:37:37;;;;;;;;;;;;;;;18.42;100.00;100667.91;4939814;29;19921;-83
2023/07/28 08:40:04;;;;;;;;;;;;;;;18.46;100.00;100677.47;4905482;29;20354;-82
2023/07/28 08:42:30;;;;;;;;;;;;;;;18.46;100.00;100680.16;4924289;29;19922;-83
2023/07/28 08:44:56;;;;;;;;;;;;;;;18.47;100.00;100673.84;4937310;29;19929;-83
2023/07/28 08:47:21;;;;;;;;;;;;;;;18.52;100.00;100681.63;4909556;29;19918;-82
2023/07/28 08:49:47;;;;;;;;;;;;;;;18.60;100.00;100679.38;4908818;29;19974;-83
2023/07/28 08:52:15;;;;;;;;;;;;;;;18.64;100.00;100680.03;4932127;29;19923;-82
2023/07/28 08:54:41;;;;;;;;;;;;;;;18.69;100.00;100683.31;4945653;29;19919;-82
2023/07/28 08:57:06;;;;;;;;;;;;;;;18.76;100.00;100681.19;4932405;29;19954;-82
2023/07/28 08:59:31;;;;;;;;;;;;;;;18.76;100.00;100686.56;4931700;29;19939;-78
2023/07/28 09:02:01;;;;;;;;;;;;;;;18.76;100.00;100682.03;4937523;29;20405;-82
2023/07/28 09:04:26;;;;;;;;;;;;;;;18.81;100.00;100690.69;4904630;29;20271;-82
2023/07/28 09:06:52;;;;;;;;;;;;;;;18.83;100.00;100687.94;4937168;29;19919;-82
2023/07/28 09:09:18;;;;;;;;;;;;;;;18.87;100.00;100684.97;4919899;29;19931;-82
2023/07/28 09:11:48;;;;;;;;;;;;;;;18.96;100.00;100690.75;4937066;29;19962;-82
2023/07/28 09:14:14;;;;;;;;;;;;;;;18.97;100.00;100697.84;4937095;29;20014;-82
2023/07/28 09:16:40;;;;;;;;;;;;;;;19.04;100.00;100701.88;4937677;29;20009;-83
2023/07/28 09:19:06;;;;;;;;;;;;;;;19.05;100.00;100688.38;4937513;29;20013;-82
2023/07/28 09:21:32;;;;;;;;;;;;;;;19.14;100.00;100692.34;4920169;29;19954;-82
2023/07/28 09:24:00;;;;;;;;;;;;;;;19.22;100.00;100697.25;4919927;29;19957;-82
2023/07/28 09:26:35;;;;;;;;;;;;;;;19.28;100.00;100699.56;4914073;29;19922;-82
2023/07/28 09:29:01;;;;;;;;;;;;;;;19.33;100.00;100694.75;4936998;29;19966;-83
2023/07/28 09:31:30;;;;;;;;;;;;;;;19.44;100.00;100703.03;4904746;29;19927;-82
2023/07/28 09:33:56;;;;;;;;;;;;;;;19.51;100.00;100699.03;4903424;29;19934;-83
2023/07/28 09:36:25;;;;;;;;;;;;;;;19.55;100.00;100699.69;4937551;29;20413;-82
2023/07/28 09:38:51;;;;;;;;;;;;;;;19.55;100.00;100699.69;4936709;29;19926;-83
2023/07/28 09:41:17;;;;;;;;;;;;;;;19.63;100.00;100700.06;4919645;29;19942;-82
2023/07/28 09:43:44;;;;;;;;;;;;;;;19.75;100.00;100693.09;4936921;29;19927;-82
2023/07/28 09:46:10;;;;;;;;;;;;;;;19.88;100.00;100698.56;4936379;29;20001;-82
2023/07/28 09:48:37;;;;;;;;;;;;;;;19.94;100.00;100696.38;4936430;29;20021;-82
2023/07/28 09:51:06;;;;;;;;;;;;;;;20.07;100.00;100698.28;4936390;29;19997;-82
2023/07/28 09:53:35;;;;;;;;;;;;;;;20.23;100.00;100692.75;4936482;29;19926;-82
2023/07/28 09:56:02;;;;;;;;;;;;;;;20.31;100.00;100694.00;4936133;29;19922;-82
2023/07/28 09:58:33;;;;;;;;;;;;;;;20.32;100.00;100694.88;4903619;29;20386;-83
2023/07/28 10:00:59;;;;;;;;;;;;;;;20.40;100.00;100698.81;4919187;29;19919;-82
2023/07/28 10:03:24;;;;;;;;;;;;;;;20.49;100.00;100697.31;4919459;29;19919;-82
2023/07/28 10:05:50;;;;;;;;;;;;;;;20.51;100.00;100697.22;4919376;29;19918;-82
2023/07/28 10:08:16;;;;;;;;;;;;;;;20.60;100.00;100702.03;4919557;29;20025;-82
2023/07/28 10:10:41;;;;;;;;;;;;;;;20.83;100.00;100692.44;4936151;29;20445;-82
2023/07/28 10:13:18;;;;;;;;;;;;;;;20.86;100.00;100697.59;4937087;29;19970;-82
2023/07/28 10:15:45;;;;;;;;;;;;;;;20.99;100.00;100697.63;4936391;29;19919;-82
2023/07/28 10:18:12;;;;;;;;;;;;;;;21.09;100.00;100700.56;4936291;29;20450;-82
2023/07/28 10:20:38;;;;;;;;;;;;;;;21.13;100.00;100697.56;4936644;29;19962;-83
2023/07/28 10:23:05;;;;;;;;;;;;;;;21.16;100.00;100700.03;4923977;29;20517;-82
2023/07/28 10:25:35;;;;;;;;;;;;;;;21.14;98.62;100699.31;4936078;29;19919;-82
2023/07/28 10:28:02;;;;;;;;;;;;;;;21.15;98.86;100705.53;4937206;29;19919;-83
2023/07/28 10:30:27;;;;;;;;;;;;;;;21.17;98.07;100700.94;4919389;29;19926;-83
2023/07/28 10:32:54;;;;;;;;;;;;;;;21.22;99.06;100696.94;4935974;29;19927;-83
2023/07/28 10:35:24;;;;;;;;;;;;;;;21.28;99.93;100701.03;4935408;29;19965;-82
2023/07/28 10:37:49;;;;;;;;;;;;;;;21.36;99.29;100701.34;4935708;29;19961;-82
2023/07/28 10:40:27;;;;;;;;;;;;;;;21.43;100.00;100700.00;4934451;29;19982;-82
2023/07/28 10:42:53;;;;;;;;;;;;;;;21.54;97.56;100696.56;4935626;29;19938;-82
2023/07/28 10:45:19;;;;;;;;;;;;;;;21.59;97.13;100701.66;4918393;29;20015;-82
2023/07/28 10:47:45;;;;;;;;;;;;;;;21.55;96.51;100703.66;4935483;29;19918;-82
2023/07/28 10:50:11;;;;;;;;;;;;;;;21.57;97.35;100700.88;4935360;29;19986;-82
2023/07/28 10:52:43;;;;;;;;;;;;;;;21.67;98.70;100704.66;4918200;29;19926;-82
2023/07/28 10:55:17;;;;;;;;;;;;;;;21.91;97.68;100702.06;4935456;29;19919;-82
2023/07/28 10:57:43;;;;;;;;;;;;;;;22.08;97.26;100696.31;4935447;29;19975;-82
2023/07/28 11:00:09;;;;;;;;;;;;;;;22.17;93.09;100700.16;4935259;29;20506;-83
2023/07/28 11:02:52;;;;;;;;;;;;;;;22.21;93.31;100701.69;4935913;29;20066;-81
2023/07/28 11:05:22;;;;;;;;;;;;;;;22.26;94.89;100696.81;4935250;29;19993;-82
2023/07/28 11:07:48;;;;;;;;;;;;;;;22.30;88.74;100701.03;4933893;29;19923;-81
2023/07/28 11:10:14;;;;;;;;;;;;;;;22.29;87.16;100698.44;4914946;29;19915;-81
2023/07/28 11:12:50;;;;;;;;;;;;;;;22.24;87.06;100703.31;4935094;29;19964;-82
2023/07/28 11:15:16;;;;;;;;;;;;;;;22.51;88.98;100695.88;4933701;29;19930;-81
2023/07/28 11:17:44;;;;;;;;;;;;;;;22.84;89.22;100690.75;4935031;29;19923;-82
2023/07/28 11:20:16;;;;;;;;;;;;;;;22.96;85.60;100689.81;4918004;29;20039;-81
2023/07/28 11:22:42;;;;;;;;;;;;;;;23.05;86.22;100694.56;4922043;29;19919;-82
2023/07/28 11:25:09;;;;;;;;;;;;;;;23.26;86.65;100694.75;4934881;29;20475;-81
2023/07/28 11:27:35;;;;;;;;;;;;;;;23.52;85.56;100692.72;4935187;29;19919;-82
2023/07/28 11:30:03;;;;;;;;;;;;;;;23.66;86.15;100696.16;4917691;29;20017;-81
2023/07/28 11:32:29;;;;;;;;;;;;;;;23.62;84.68;100692.84;4918355;29;19923;-82
2023/07/28 11:34:54;;;;;;;;;;;;;;;23.79;86.87;100697.81;4936875;29;20270;-82
2023/07/28 11:37:20;;;;;;;;;;;;;;;23.92;83.48;100692.28;4954073;29;19932;-82
2023/07/28 11:39:46;;;;;;;;;;;;;;;23.79;79.61;100694.25;4953877;29;19945;-82
2023/07/28 11:42:12;;;;;;;;;;;;;;;23.65;81.24;100700.72;4953952;29;19922;-82
2023/07/28 11:44:37;;;;;;;;;;;;;;;23.56;80.56;100690.63;4934748;29;19922;-83
2023/07/28 11:47:04;;;;;;;;;;;;;;;23.65;81.48;100691.75;4936517;29;20324;-82
2023/07/28 11:49:30;;;;;;;;;;;;;;;23.83;79.39;100703.81;4951831;29;19925;-82
2023/07/28 11:51:58;;;;;;;;;;;;;;;24.00;78.85;100686.25;4952604;29;19926;-82
2023/07/28 11:54:25;;;;;;;;;;;;;;;24.38;81.42;100688.56;4948512;28;19918;-82
2023/07/28 11:56:51;;;;;;;;;;;;;;;24.70;72.48;100690.44;4953796;28;19938;-82
2023/07/28 11:59:17;;;;;;;;;;;;;;;24.82;74.86;100693.97;4957301;29;20394;-83
2023/07/28 12:01:57;;;;;;;;;;;;;;;24.78;69.27;100693.38;4939887;29;19918;-84
2023/07/28 12:04:23;;;;;;;;;;;;;;;24.60;70.35;100692.19;4954141;29;19919;-82
2023/07/28 12:07:07;;;;;;;;;;;;;;;24.39;73.91;100689.41;4957064;29;19918;-84
2023/07/28 12:09:33;;;;;;;;;;;;;;;24.20;70.96;100692.75;4956814;28;19922;-83
2023/07/28 12:11:59;;;;;;;;;;;;;;;24.13;69.63;100694.22;4956711;29;19925;-83
2023/07/28 12:14:32;;;;;;;;;;;;;;;24.01;73.69;100696.97;4939477;29;19918;-83
2023/07/28 12:16:57;;;;;;;;;;;;;;;23.94;73.80;100695.72;4957023;29;19918;-83
2023/07/28 12:19:22;;;;;;;;;;;;;;;23.96;76.35;100693.75;4955188;29;19932;-83
2023/07/28 12:21:48;;;;;;;;;;;;;;;23.91;71.48;100697.81;4954975;29;19927;-83
2023/07/28 12:24:13;;;;;;;;;;;;;;;23.86;75.03;100694.59;4939127;29;20370;-83
2023/07/28 12:26:38;;;;;;;;;;;;;;;23.89;74.46;100694.38;4956516;29;19922;-82